sensor_id;sensor_type;location;lat;lon;timestamp;P1;durP1;ratioP1;P2;durP2;ratioP2
9722;SDS011;4900;49.306;8.500;2023-11-18T00:01:48;7.23;;;5.70;;
9722;SDS011;4900;49.306;8.500;2023-11-18T00:04:14;8.03;;;6.10;;
9722;SDS011;4900;49.306;8.500;2023-11-18T00:06:42;6.20;;;5.40;;
9722;SDS011;4900;49.306;8.500;2023-11-18T00:09:11;7.37;;;5.50;;
9722;SDS011;4900;49.306;8.500;2023-11-18T00:11:40;7.00;;;5.87;;
9722;SDS011;4900;49.306;8.500;2023-11-18T00:14:06;7.43;;;5.57;;
9722;SDS011;4900;49.306;8.500;2023-11-18T00:16:31;7.23;;;5.40;;
9722;SDS011;4900;49.306;8.500;2023-11-18T00:18:57;7.43;;;5.87;;
9722;SDS011;4900;49.306;8.500;2023-11-18T00:21:24;6.40;;;5.10;;
9722;SDS011;4900;49.306;8.500;2023-11-18T00:23:49;6.07;;;5.03;;
9722;SDS011;4900;49.306;8.500;2023-11-18T00:26:15;6.47;;;5.37;;
9722;SDS011;4900;49.306;8.500;2023-11-18T00:28:40;7.53;;;5.27;;
9722;SDS011;4900;49.306;8.500;2023-11-18T00:31:05;7.67;;;5.60;;
9722;SDS011;4900;49.306;8.500;2023-11-18T00:33:31;7.03;;;5.43;;
9722;SDS011;4900;49.306;8.500;2023-11-18T00:35:57;6.70;;;5.17;;
9722;SDS011;4900;49.306;8.500;2023-11-18T00:38:24;7.20;;;5.77;;
9722;SDS011;4900;49.306;8.500;2023-11-18T00:40:49;5.97;;;4.80;;
9722;SDS011;4900;49.306;8.500;2023-11-18T00:43:15;7.13;;;5.40;;
9722;SDS011;4900;49.306;8.500;2023-11-18T00:45:40;6.97;;;5.20;;
9722;SDS011;4900;49.306;8.500;2023-11-18T00:48:08;6.80;;;5.17;;
9722;SDS011;4900;49.306;8.500;2023-11-18T00:50:33;5.73;;;4.97;;
9722;SDS011;4900;49.306;8.500;2023-11-18T00:52:59;5.60;;;5.00;;
9722;SDS011;4900;49.306;8.500;2023-11-18T00:55:24;7.53;;;5.70;;
9722;SDS011;4900;49.306;8.500;2023-11-18T00:57:50;7.37;;;5.70;;
9722;SDS011;4900;49.306;8.500;2023-11-18T01:00:16;6.83;;;5.10;;
9722;SDS011;4900;49.306;8.500;2023-11-18T01:02:47;7.93;;;6.90;;
9722;SDS011;4900;49.306;8.500;2023-11-18T01:05:14;7.77;;;6.47;;
9722;SDS011;4900;49.306;8.500;2023-11-18T01:07:40;8.43;;;6.13;;
9722;SDS011;4900;49.306;8.500;2023-11-18T01:10:06;8.07;;;6.50;;
9722;SDS011;4900;49.306;8.500;2023-11-18T01:12:33;8.77;;;6.27;;
9722;SDS011;4900;49.306;8.500;2023-11-18T01:14:58;9.23;;;7.00;;
9722;SDS011;4900;49.306;8.500;2023-11-18T01:17:24;10.70;;;6.97;;
9722;SDS011;4900;49.306;8.500;2023-11-18T01:19:50;8.20;;;6.73;;
9722;SDS011;4900;49.306;8.500;2023-11-18T01:22:15;7.10;;;6.17;;
9722;SDS011;4900;49.306;8.500;2023-11-18T01:24:41;8.40;;;5.83;;
9722;SDS011;4900;49.306;8.500;2023-11-18T01:27:06;7.40;;;6.37;;
9722;SDS011;4900;49.306;8.500;2023-11-18T01:29:35;8.27;;;6.50;;
9722;SDS011;4900;49.306;8.500;2023-11-18T01:32:00;7.70;;;6.27;;
9722;SDS011;4900;49.306;8.500;2023-11-18T01:34:33;8.03;;;6.43;;
9722;SDS011;4900;49.306;8.500;2023-11-18T01:36:59;8.23;;;6.43;;
9722;SDS011;4900;49.306;8.500;2023-11-18T01:39:24;8.80;;;6.90;;
9722;SDS011;4900;49.306;8.500;2023-11-18T01:41:51;8.63;;;6.60;;
9722;SDS011;4900;49.306;8.500;2023-11-18T01:44:17;7.73;;;6.43;;
9722;SDS011;4900;49.306;8.500;2023-11-18T01:46:44;7.73;;;6.40;;
9722;SDS011;4900;49.306;8.500;2023-11-18T01:49:11;8.30;;;6.57;;
9722;SDS011;4900;49.306;8.500;2023-11-18T01:51:39;8.20;;;6.93;;
9722;SDS011;4900;49.306;8.500;2023-11-18T01:54:06;8.40;;;6.10;;
9722;SDS011;4900;49.306;8.500;2023-11-18T01:56:32;7.50;;;6.67;;
9722;SDS011;4900;49.306;8.500;2023-11-18T01:58:58;8.73;;;6.70;;
9722;SDS011;4900;49.306;8.500;2023-11-18T02:01:24;9.07;;;7.00;;
9722;SDS011;4900;49.306;8.500;2023-11-18T02:03:52;8.37;;;6.50;;
9722;SDS011;4900;49.306;8.500;2023-11-18T02:06:18;7.93;;;6.33;;
9722;SDS011;4900;49.306;8.500;2023-11-18T02:08:43;8.27;;;6.63;;
9722;SDS011;4900;49.306;8.500;2023-11-18T02:11:20;6.77;;;5.73;;
9722;SDS011;4900;49.306;8.500;2023-11-18T02:13:56;8.00;;;6.00;;
9722;SDS011;4900;49.306;8.500;2023-11-18T02:16:27;7.27;;;6.13;;
9722;SDS011;4900;49.306;8.500;2023-11-18T02:18:53;7.63;;;5.93;;
9722;SDS011;4900;49.306;8.500;2023-11-18T02:21:19;8.77;;;6.73;;
9722;SDS011;4900;49.306;8.500;2023-11-18T02:23:47;9.63;;;7.20;;
9722;SDS011;4900;49.306;8.500;2023-11-18T02:26:20;7.80;;;6.47;;
9722;SDS011;4900;49.306;8.500;2023-11-18T02:28:46;9.03;;;7.27;;
9722;SDS011;4900;49.306;8.500;2023-11-18T02:31:14;8.33;;;6.17;;
9722;SDS011;4900;49.306;8.500;2023-11-18T02:33:58;10.20;;;7.07;;
9722;SDS011;4900;49.306;8.500;2023-11-18T02:36:31;7.77;;;5.47;;
9722;SDS011;4900;49.306;8.500;2023-11-18T02:39:43;9.40;;;6.57;;
9722;SDS011;4900;49.306;8.500;2023-11-18T02:42:07;8.60;;;6.37;;
9722;SDS011;4900;49.306;8.500;2023-11-18T02:44:34;8.80;;;6.33;;
9722;SDS011;4900;49.306;8.500;2023-11-18T02:47:01;10.90;;;6.83;;
9722;SDS011;4900;49.306;8.500;2023-11-18T02:49:27;9.10;;;6.50;;
9722;SDS011;4900;49.306;8.500;2023-11-18T02:51:54;9.17;;;5.80;;
9722;SDS011;4900;49.306;8.500;2023-11-18T02:54:20;7.37;;;5.70;;
9722;SDS011;4900;49.306;8.500;2023-11-18T02:56:46;10.10;;;6.30;;
9722;SDS011;4900;49.306;8.500;2023-11-18T02:59:11;8.50;;;6.33;;
9722;SDS011;4900;49.306;8.500;2023-11-18T03:01:38;7.60;;;5.53;;
9722;SDS011;4900;49.306;8.500;2023-11-18T03:04:06;6.77;;;5.23;;
9722;SDS011;4900;49.306;8.500;2023-11-18T03:06:32;12.90;;;6.77;;
9722;SDS011;4900;49.306;8.500;2023-11-18T03:08:57;7.63;;;6.37;;
9722;SDS011;4900;49.306;8.500;2023-11-18T03:11:23;6.90;;;5.57;;
9722;SDS011;4900;49.306;8.500;2023-11-18T03:13:49;8.27;;;6.30;;
9722;SDS011;4900;49.306;8.500;2023-11-18T03:16:14;6.83;;;6.13;;
9722;SDS011;4900;49.306;8.500;2023-11-18T03:18:43;8.90;;;6.83;;
9722;SDS011;4900;49.306;8.500;2023-11-18T03:21:11;7.40;;;5.97;;
9722;SDS011;4900;49.306;8.500;2023-11-18T03:23:40;8.53;;;7.10;;
9722;SDS011;4900;49.306;8.500;2023-11-18T03:26:09;8.03;;;6.40;;
9722;SDS011;4900;49.306;8.500;2023-11-18T03:28:36;9.10;;;6.83;;
9722;SDS011;4900;49.306;8.500;2023-11-18T03:31:06;7.60;;;6.10;;
9722;SDS011;4900;49.306;8.500;2023-11-18T03:33:32;9.20;;;6.67;;
9722;SDS011;4900;49.306;8.500;2023-11-18T03:35:58;8.23;;;6.30;;
9722;SDS011;4900;49.306;8.500;2023-11-18T03:38:23;7.23;;;5.70;;
9722;SDS011;4900;49.306;8.500;2023-11-18T03:40:49;7.97;;;6.83;;
9722;SDS011;4900;49.306;8.500;2023-11-18T03:43:14;8.40;;;6.43;;
9722;SDS011;4900;49.306;8.500;2023-11-18T03:45:40;9.63;;;6.70;;
9722;SDS011;4900;49.306;8.500;2023-11-18T03:48:06;9.20;;;6.63;;
9722;SDS011;4900;49.306;8.500;2023-11-18T03:50:32;7.40;;;6.03;;
9722;SDS011;4900;49.306;8.500;2023-11-18T03:52:58;6.87;;;5.73;;
9722;SDS011;4900;49.306;8.500;2023-11-18T03:55:23;8.47;;;6.33;;
9722;SDS011;4900;49.306;8.500;2023-11-18T03:57:50;7.80;;;5.93;;
9722;SDS011;4900;49.306;8.500;2023-11-18T04:00:16;7.90;;;6.07;;
9722;SDS011;4900;49.306;8.500;2023-11-18T04:02:42;7.37;;;6.10;;
9722;SDS011;4900;49.306;8.500;2023-11-18T04:05:08;10.53;;;7.07;;
9722;SDS011;4900;49.306;8.500;2023-11-18T04:07:34;8.80;;;6.60;;
9722;SDS011;4900;49.306;8.500;2023-11-18T04:09:59;8.90;;;6.63;;
9722;SDS011;4900;49.306;8.500;2023-11-18T04:12:25;7.20;;;6.00;;
9722;SDS011;4900;49.306;8.500;2023-11-18T04:14:52;7.83;;;6.27;;
9722;SDS011;4900;49.306;8.500;2023-11-18T04:17:18;9.37;;;6.63;;
9722;SDS011;4900;49.306;8.500;2023-11-18T04:19:43;8.33;;;6.27;;
9722;SDS011;4900;49.306;8.500;2023-11-18T04:22:08;7.80;;;6.10;;
9722;SDS011;4900;49.306;8.500;2023-11-18T04:24:34;8.83;;;6.00;;
9722;SDS011;4900;49.306;8.500;2023-11-18T04:27:00;8.03;;;6.27;;
9722;SDS011;4900;49.306;8.500;2023-11-18T04:29:25;9.27;;;6.77;;
9722;SDS011;4900;49.306;8.500;2023-11-18T04:31:51;9.73;;;7.47;;
9722;SDS011;4900;49.306;8.500;2023-11-18T04:34:18;10.80;;;8.03;;
9722;SDS011;4900;49.306;8.500;2023-11-18T04:36:44;10.73;;;7.53;;
9722;SDS011;4900;49.306;8.500;2023-11-18T04:39:09;11.53;;;7.57;;
9722;SDS011;4900;49.306;8.500;2023-11-18T04:41:37;12.33;;;8.97;;
9722;SDS011;4900;49.306;8.500;2023-11-18T04:44:02;10.83;;;8.13;;
9722;SDS011;4900;49.306;8.500;2023-11-18T04:46:28;11.10;;;8.30;;
9722;SDS011;4900;49.306;8.500;2023-11-18T04:48:53;10.57;;;7.53;;
9722;SDS011;4900;49.306;8.500;2023-11-18T04:51:20;10.70;;;8.20;;
9722;SDS011;4900;49.306;8.500;2023-11-18T04:53:47;12.77;;;9.33;;
9722;SDS011;4900;49.306;8.500;2023-11-18T04:56:13;11.53;;;8.73;;
9722;SDS011;4900;49.306;8.500;2023-11-18T04:58:41;12.60;;;8.77;;
9722;SDS011;4900;49.306;8.500;2023-11-18T05:01:07;13.37;;;9.30;;
9722;SDS011;4900;49.306;8.500;2023-11-18T05:03:33;14.33;;;9.73;;
9722;SDS011;4900;49.306;8.500;2023-11-18T05:06:00;14.23;;;10.20;;
9722;SDS011;4900;49.306;8.500;2023-11-18T05:08:26;16.73;;;10.40;;
9722;SDS011;4900;49.306;8.500;2023-11-18T05:10:51;13.20;;;9.83;;
9722;SDS011;4900;49.306;8.500;2023-11-18T05:13:17;16.67;;;10.33;;
9722;SDS011;4900;49.306;8.500;2023-11-18T05:15:44;14.13;;;10.43;;
9722;SDS011;4900;49.306;8.500;2023-11-18T05:18:13;14.83;;;10.60;;
9722;SDS011;4900;49.306;8.500;2023-11-18T05:20:40;18.47;;;11.87;;
9722;SDS011;4900;49.306;8.500;2023-11-18T05:23:06;18.87;;;11.70;;
9722;SDS011;4900;49.306;8.500;2023-11-18T05:25:34;18.33;;;12.23;;
9722;SDS011;4900;49.306;8.500;2023-11-18T05:28:01;18.93;;;12.33;;
9722;SDS011;4900;49.306;8.500;2023-11-18T05:30:26;19.37;;;12.27;;
9722;SDS011;4900;49.306;8.500;2023-11-18T05:32:52;20.60;;;12.50;;
9722;SDS011;4900;49.306;8.500;2023-11-18T05:35:18;19.50;;;12.97;;
9722;SDS011;4900;49.306;8.500;2023-11-18T05:37:43;21.40;;;12.90;;
9722;SDS011;4900;49.306;8.500;2023-11-18T05:40:09;21.40;;;12.93;;
9722;SDS011;4900;49.306;8.500;2023-11-18T05:42:36;20.83;;;12.43;;
9722;SDS011;4900;49.306;8.500;2023-11-18T05:45:05;21.73;;;12.97;;
9722;SDS011;4900;49.306;8.500;2023-11-18T05:47:32;22.70;;;13.07;;
9722;SDS011;4900;49.306;8.500;2023-11-18T05:49:59;22.60;;;13.80;;
9722;SDS011;4900;49.306;8.500;2023-11-18T05:52:25;23.00;;;13.53;;
9722;SDS011;4900;49.306;8.500;2023-11-18T05:54:50;23.93;;;14.13;;
9722;SDS011;4900;49.306;8.500;2023-11-18T05:57:16;22.40;;;13.37;;
9722;SDS011;4900;49.306;8.500;2023-11-18T05:59:44;22.03;;;13.60;;
9722;SDS011;4900;49.306;8.500;2023-11-18T06:02:13;23.03;;;13.50;;
9722;SDS011;4900;49.306;8.500;2023-11-18T06:04:43;24.47;;;13.43;;
9722;SDS011;4900;49.306;8.500;2023-11-18T06:07:09;21.43;;;13.40;;
9722;SDS011;4900;49.306;8.500;2023-11-18T06:09:34;23.33;;;13.33;;
9722;SDS011;4900;49.306;8.500;2023-11-18T06:11:59;21.63;;;12.93;;
9722;SDS011;4900;49.306;8.500;2023-11-18T06:14:25;20.13;;;12.13;;
9722;SDS011;4900;49.306;8.500;2023-11-18T06:16:51;19.67;;;12.10;;
9722;SDS011;4900;49.306;8.500;2023-11-18T06:19:17;17.20;;;11.03;;
9722;SDS011;4900;49.306;8.500;2023-11-18T06:21:42;17.30;;;11.20;;
9722;SDS011;4900;49.306;8.500;2023-11-18T06:24:07;15.13;;;10.60;;
9722;SDS011;4900;49.306;8.500;2023-11-18T06:26:36;16.97;;;10.97;;
9722;SDS011;4900;49.306;8.500;2023-11-18T06:29:02;17.03;;;11.07;;
9722;SDS011;4900;49.306;8.500;2023-11-18T06:31:29;15.97;;;10.30;;
9722;SDS011;4900;49.306;8.500;2023-11-18T06:33:54;17.47;;;10.70;;
9722;SDS011;4900;49.306;8.500;2023-11-18T06:36:20;17.77;;;10.73;;
9722;SDS011;4900;49.306;8.500;2023-11-18T06:38:47;17.77;;;10.50;;
9722;SDS011;4900;49.306;8.500;2023-11-18T06:41:17;17.67;;;10.67;;
9722;SDS011;4900;49.306;8.500;2023-11-18T06:43:44;15.00;;;9.43;;
9722;SDS011;4900;49.306;8.500;2023-11-18T06:46:31;16.60;;;9.77;;
9722;SDS011;4900;49.306;8.500;2023-11-18T06:48:59;16.70;;;9.50;;
9722;SDS011;4900;49.306;8.500;2023-11-18T06:51:29;16.47;;;9.70;;
9722;SDS011;4900;49.306;8.500;2023-11-18T06:53:57;18.20;;;11.10;;
9722;SDS011;4900;49.306;8.500;2023-11-18T06:56:26;18.13;;;10.27;;
9722;SDS011;4900;49.306;8.500;2023-11-18T06:58:52;17.07;;;9.77;;
9722;SDS011;4900;49.306;8.500;2023-11-18T07:01:18;15.43;;;9.37;;
9722;SDS011;4900;49.306;8.500;2023-11-18T07:03:45;17.70;;;9.90;;
9722;SDS011;4900;49.306;8.500;2023-11-18T07:06:16;16.10;;;10.07;;
9722;SDS011;4900;49.306;8.500;2023-11-18T07:08:47;15.40;;;8.97;;
9722;SDS011;4900;49.306;8.500;2023-11-18T07:11:15;13.03;;;8.73;;
9722;SDS011;4900;49.306;8.500;2023-11-18T07:13:42;14.93;;;9.17;;
9722;SDS011;4900;49.306;8.500;2023-11-18T07:16:08;14.63;;;9.47;;
9722;SDS011;4900;49.306;8.500;2023-11-18T07:18:34;14.97;;;9.97;;
9722;SDS011;4900;49.306;8.500;2023-11-18T07:21:00;14.30;;;9.27;;
9722;SDS011;4900;49.306;8.500;2023-11-18T07:23:28;16.17;;;9.80;;
9722;SDS011;4900;49.306;8.500;2023-11-18T07:25:54;12.97;;;9.00;;
9722;SDS011;4900;49.306;8.500;2023-11-18T07:28:19;14.07;;;9.23;;
9722;SDS011;4900;49.306;8.500;2023-11-18T07:30:45;14.27;;;9.47;;
9722;SDS011;4900;49.306;8.500;2023-11-18T07:33:16;15.37;;;9.50;;
9722;SDS011;4900;49.306;8.500;2023-11-18T07:35:42;12.47;;;8.80;;
9722;SDS011;4900;49.306;8.500;2023-11-18T07:38:08;16.23;;;9.07;;
9722;SDS011;4900;49.306;8.500;2023-11-18T07:40:34;13.60;;;8.53;;
9722;SDS011;4900;49.306;8.500;2023-11-18T07:43:00;15.77;;;9.40;;
9722;SDS011;4900;49.306;8.500;2023-11-18T07:45:34;13.67;;;9.23;;
9722;SDS011;4900;49.306;8.500;2023-11-18T07:48:02;12.57;;;8.50;;
9722;SDS011;4900;49.306;8.500;2023-11-18T07:50:31;14.20;;;9.57;;
9722;SDS011;4900;49.306;8.500;2023-11-18T07:52:58;15.23;;;10.33;;
9722;SDS011;4900;49.306;8.500;2023-11-18T07:55:23;13.17;;;9.37;;
9722;SDS011;4900;49.306;8.500;2023-11-18T07:57:48;14.43;;;9.43;;
9722;SDS011;4900;49.306;8.500;2023-11-18T08:00:14;14.73;;;9.57;;
9722;SDS011;4900;49.306;8.500;2023-11-18T08:02:40;14.60;;;9.67;;
9722;SDS011;4900;49.306;8.500;2023-11-18T08:05:05;16.13;;;9.50;;
9722;SDS011;4900;49.306;8.500;2023-11-18T08:07:33;12.80;;;9.13;;
9722;SDS011;4900;49.306;8.500;2023-11-18T08:09:59;14.30;;;9.50;;
9722;SDS011;4900;49.306;8.500;2023-11-18T08:12:25;13.67;;;9.40;;
9722;SDS011;4900;49.306;8.500;2023-11-18T08:14:50;16.03;;;9.30;;
9722;SDS011;4900;49.306;8.500;2023-11-18T08:17:15;12.60;;;9.37;;
9722;SDS011;4900;49.306;8.500;2023-11-18T08:19:41;14.50;;;9.00;;
9722;SDS011;4900;49.306;8.500;2023-11-18T08:22:06;14.90;;;9.93;;
9722;SDS011;4900;49.306;8.500;2023-11-18T08:24:34;14.57;;;9.20;;
9722;SDS011;4900;49.306;8.500;2023-11-18T08:26:59;13.43;;;9.70;;
9722;SDS011;4900;49.306;8.500;2023-11-18T08:29:28;13.40;;;9.63;;
9722;SDS011;4900;49.306;8.500;2023-11-18T08:31:56;16.47;;;10.43;;
9722;SDS011;4900;49.306;8.500;2023-11-18T08:34:22;14.27;;;10.40;;
9722;SDS011;4900;49.306;8.500;2023-11-18T08:36:50;15.30;;;10.33;;
9722;SDS011;4900;49.306;8.500;2023-11-18T08:39:16;14.93;;;10.33;;
9722;SDS011;4900;49.306;8.500;2023-11-18T08:41:44;13.73;;;10.23;;
9722;SDS011;4900;49.306;8.500;2023-11-18T08:44:10;15.33;;;10.30;;
9722;SDS011;4900;49.306;8.500;2023-11-18T08:46:38;14.33;;;10.60;;
9722;SDS011;4900;49.306;8.500;2023-11-18T08:49:04;15.63;;;11.17;;
9722;SDS011;4900;49.306;8.500;2023-11-18T08:51:36;15.37;;;10.33;;
9722;SDS011;4900;49.306;8.500;2023-11-18T08:54:03;14.10;;;10.13;;
9722;SDS011;4900;49.306;8.500;2023-11-18T08:56:47;15.37;;;10.53;;
9722;SDS011;4900;49.306;8.500;2023-11-18T08:59:15;16.40;;;10.57;;
9722;SDS011;4900;49.306;8.500;2023-11-18T09:01:43;15.33;;;11.30;;
9722;SDS011;4900;49.306;8.500;2023-11-18T09:04:11;17.80;;;12.73;;
9722;SDS011;4900;49.306;8.500;2023-11-18T09:06:37;17.87;;;11.50;;
9722;SDS011;4900;49.306;8.500;2023-11-18T09:09:04;18.03;;;12.13;;
9722;SDS011;4900;49.306;8.500;2023-11-18T09:11:35;17.43;;;12.03;;
9722;SDS011;4900;49.306;8.500;2023-11-18T09:14:02;15.90;;;11.27;;
9722;SDS011;4900;49.306;8.500;2023-11-18T09:16:29;15.37;;;11.20;;
9722;SDS011;4900;49.306;8.500;2023-11-18T09:18:54;16.37;;;11.13;;
9722;SDS011;4900;49.306;8.500;2023-11-18T09:21:21;16.93;;;12.80;;
9722;SDS011;4900;49.306;8.500;2023-11-18T09:23:54;13.63;;;10.47;;
9722;SDS011;4900;49.306;8.500;2023-11-18T09:26:21;12.73;;;10.03;;
9722;SDS011;4900;49.306;8.500;2023-11-18T09:28:47;13.57;;;10.60;;
9722;SDS011;4900;49.306;8.500;2023-11-18T09:31:14;12.93;;;10.13;;
9722;SDS011;4900;49.306;8.500;2023-11-18T09:33:41;15.60;;;10.53;;
9722;SDS011;4900;49.306;8.500;2023-11-18T09:36:17;13.60;;;10.20;;
9722;SDS011;4900;49.306;8.500;2023-11-18T09:38:43;15.43;;;11.03;;
9722;SDS011;4900;49.306;8.500;2023-11-18T09:41:11;12.97;;;9.60;;
9722;SDS011;4900;49.306;8.500;2023-11-18T09:43:41;12.53;;;10.03;;
9722;SDS011;4900;49.306;8.500;2023-11-18T09:46:10;11.97;;;9.67;;
9722;SDS011;4900;49.306;8.500;2023-11-18T09:51:13;12.47;;;9.53;;
9722;SDS011;4900;49.306;8.500;2023-11-18T09:53:41;11.43;;;8.37;;
9722;SDS011;4900;49.306;8.500;2023-11-18T09:56:12;10.40;;;7.87;;
9722;SDS011;4900;49.306;8.500;2023-11-18T09:58:54;9.27;;;7.27;;
9722;SDS011;4900;49.306;8.500;2023-11-18T10:01:30;8.80;;;7.30;;
9722;SDS011;4900;49.306;8.500;2023-11-18T10:04:04;8.00;;;6.80;;
9722;SDS011;4900;49.306;8.500;2023-11-18T10:06:32;9.33;;;7.17;;
9722;SDS011;4900;49.306;8.500;2023-11-18T10:09:00;7.80;;;6.33;;
9722;SDS011;4900;49.306;8.500;2023-11-18T10:11:41;8.00;;;6.57;;
9722;SDS011;4900;49.306;8.500;2023-11-18T10:14:07;7.67;;;6.50;;
9722;SDS011;4900;49.306;8.500;2023-11-18T10:16:33;8.97;;;6.77;;
9722;SDS011;4900;49.306;8.500;2023-11-18T10:18:59;9.10;;;7.07;;
9722;SDS011;4900;49.306;8.500;2023-11-18T10:21:36;7.93;;;6.47;;
9722;SDS011;4900;49.306;8.500;2023-11-18T10:24:04;6.60;;;5.67;;
9722;SDS011;4900;49.306;8.500;2023-11-18T10:26:40;6.53;;;5.77;;
9722;SDS011;4900;49.306;8.500;2023-11-18T10:29:06;9.17;;;5.90;;
9722;SDS011;4900;49.306;8.500;2023-11-18T10:31:34;8.37;;;6.00;;
9722;SDS011;4900;49.306;8.500;2023-11-18T10:34:09;8.80;;;7.07;;
9722;SDS011;4900;49.306;8.500;2023-11-18T10:36:40;7.30;;;6.03;;
9722;SDS011;4900;49.306;8.500;2023-11-18T10:39:10;8.80;;;6.20;;
9722;SDS011;4900;49.306;8.500;2023-11-18T10:41:39;11.40;;;7.67;;
9722;SDS011;4900;49.306;8.500;2023-11-18T10:44:07;8.40;;;6.53;;
9722;SDS011;4900;49.306;8.500;2023-11-18T10:46:39;8.57;;;6.40;;
9722;SDS011;4900;49.306;8.500;2023-11-18T10:49:05;9.03;;;6.23;;
9722;SDS011;4900;49.306;8.500;2023-11-18T10:51:35;6.70;;;5.43;;
9722;SDS011;4900;49.306;8.500;2023-11-18T10:54:04;6.57;;;5.47;;
9722;SDS011;4900;49.306;8.500;2023-11-18T10:56:52;7.33;;;5.50;;
9722;SDS011;4900;49.306;8.500;2023-11-18T10:59:21;6.00;;;5.40;;
9722;SDS011;4900;49.306;8.500;2023-11-18T11:01:48;7.30;;;5.27;;
9722;SDS011;4900;49.306;8.500;2023-11-18T11:04:14;6.77;;;5.50;;
9722;SDS011;4900;49.306;8.500;2023-11-18T11:06:49;7.27;;;5.43;;
9722;SDS011;4900;49.306;8.500;2023-11-18T11:09:18;6.70;;;5.50;;
9722;SDS011;4900;49.306;8.500;2023-11-18T11:11:50;8.00;;;5.80;;
9722;SDS011;4900;49.306;8.500;2023-11-18T11:14:22;6.23;;;5.10;;
9722;SDS011;4900;49.306;8.500;2023-11-18T11:17:00;6.82;;;5.38;;
9722;SDS011;4900;49.306;8.500;2023-11-18T11:19:38;6.18;;;5.47;;
9722;SDS011;4900;49.306;8.500;2023-11-18T11:22:15;7.23;;;5.77;;
9722;SDS011;4900;49.306;8.500;2023-11-18T11:27:32;6.67;;;5.30;;
9722;SDS011;4900;49.306;8.500;2023-11-18T11:30:28;6.53;;;5.10;;
9722;SDS011;4900;49.306;8.500;2023-11-18T11:35:45;4.80;;;4.23;;
9722;SDS011;4900;49.306;8.500;2023-11-18T11:38:13;7.00;;;4.07;;
9722;SDS011;4900;49.306;8.500;2023-11-18T11:40:42;3.87;;;3.47;;
9722;SDS011;4900;49.306;8.500;2023-11-18T11:43:08;5.68;;;3.70;;
9722;SDS011;4900;49.306;8.500;2023-11-18T11:45:35;4.10;;;3.70;;
9722;SDS011;4900;49.306;8.500;2023-11-18T11:48:04;4.97;;;3.47;;
9722;SDS011;4900;49.306;8.500;2023-11-18T11:53:33;4.63;;;3.27;;
9722;SDS011;4900;49.306;8.500;2023-11-18T11:56:05;5.60;;;3.67;;
9722;SDS011;4900;49.306;8.500;2023-11-18T11:58:33;4.38;;;3.42;;
9722;SDS011;4900;49.306;8.500;2023-11-18T12:01:24;6.60;;;3.80;;
9722;SDS011;4900;49.306;8.500;2023-11-18T12:03:57;5.17;;;3.83;;
9722;SDS011;4900;49.306;8.500;2023-11-18T12:06:23;4.20;;;3.20;;
9722;SDS011;4900;49.306;8.500;2023-11-18T12:08:53;5.10;;;3.20;;
9722;SDS011;4900;49.306;8.500;2023-11-18T12:11:20;4.73;;;3.67;;
9722;SDS011;4900;49.306;8.500;2023-11-18T12:14:29;4.70;;;3.50;;
9722;SDS011;4900;49.306;8.500;2023-11-18T12:19:32;4.80;;;4.10;;
9722;SDS011;4900;49.306;8.500;2023-11-18T12:22:12;5.07;;;4.27;;
9722;SDS011;4900;49.306;8.500;2023-11-18T12:24:42;6.33;;;4.10;;
9722;SDS011;4900;49.306;8.500;2023-11-18T12:27:13;8.90;;;4.57;;
9722;SDS011;4900;49.306;8.500;2023-11-18T12:29:42;4.90;;;4.17;;
9722;SDS011;4900;49.306;8.500;2023-11-18T12:32:10;6.80;;;4.90;;
9722;SDS011;4900;49.306;8.500;2023-11-18T12:34:54;7.73;;;4.73;;
9722;SDS011;4900;49.306;8.500;2023-11-18T12:42:58;6.37;;;4.50;;
9722;SDS011;4900;49.306;8.500;2023-11-18T12:48:19;5.17;;;3.37;;
9722;SDS011;4900;49.306;8.500;2023-11-18T12:50:52;5.97;;;3.57;;
9722;SDS011;4900;49.306;8.500;2023-11-18T12:53:20;5.10;;;4.10;;
9722;SDS011;4900;49.306;8.500;2023-11-18T12:55:49;4.63;;;3.50;;
9722;SDS011;4900;49.306;8.500;2023-11-18T12:58:15;6.20;;;3.40;;
9722;SDS011;4900;49.306;8.500;2023-11-18T13:00:43;5.07;;;3.23;;
9722;SDS011;4900;49.306;8.500;2023-11-18T13:03:10;4.87;;;3.20;;
9722;SDS011;4900;49.306;8.500;2023-11-18T13:05:36;3.43;;;2.90;;
9722;SDS011;4900;49.306;8.500;2023-11-18T13:08:02;4.47;;;3.40;;
9722;SDS011;4900;49.306;8.500;2023-11-18T13:10:28;4.47;;;3.13;;
9722;SDS011;4900;49.306;8.500;2023-11-18T13:12:54;4.67;;;3.13;;
9722;SDS011;4900;49.306;8.500;2023-11-18T13:15:19;4.37;;;3.07;;
9722;SDS011;4900;49.306;8.500;2023-11-18T13:17:59;3.90;;;2.80;;
9722;SDS011;4900;49.306;8.500;2023-11-18T13:20:32;5.10;;;2.97;;
9722;SDS011;4900;49.306;8.500;2023-11-18T13:23:00;4.27;;;2.73;;
9722;SDS011;4900;49.306;8.500;2023-11-18T13:25:36;4.07;;;2.93;;
9722;SDS011;4900;49.306;8.500;2023-11-18T13:28:09;5.73;;;3.83;;
9722;SDS011;4900;49.306;8.500;2023-11-18T13:30:35;7.17;;;4.03;;
9722;SDS011;4900;49.306;8.500;2023-11-18T13:33:01;7.00;;;4.33;;
9722;SDS011;4900;49.306;8.500;2023-11-18T13:35:27;4.77;;;3.73;;
9722;SDS011;4900;49.306;8.500;2023-11-18T13:37:53;7.50;;;3.40;;
9722;SDS011;4900;49.306;8.500;2023-11-18T13:40:19;4.97;;;3.13;;
9722;SDS011;4900;49.306;8.500;2023-11-18T13:42:44;4.57;;;3.03;;
9722;SDS011;4900;49.306;8.500;2023-11-18T13:45:11;4.57;;;3.10;;
9722;SDS011;4900;49.306;8.500;2023-11-18T13:47:48;5.90;;;3.10;;
9722;SDS011;4900;49.306;8.500;2023-11-18T13:50:16;3.90;;;2.50;;
9722;SDS011;4900;49.306;8.500;2023-11-18T13:52:42;6.40;;;3.50;;
9722;SDS011;4900;49.306;8.500;2023-11-18T13:55:08;4.97;;;3.30;;
9722;SDS011;4900;49.306;8.500;2023-11-18T13:57:41;4.80;;;3.30;;
9722;SDS011;4900;49.306;8.500;2023-11-18T14:00:08;3.67;;;3.10;;
9722;SDS011;4900;49.306;8.500;2023-11-18T14:02:40;3.67;;;2.70;;
9722;SDS011;4900;49.306;8.500;2023-11-18T14:05:05;7.30;;;3.87;;
9722;SDS011;4900;49.306;8.500;2023-11-18T14:07:41;5.10;;;3.50;;
9722;SDS011;4900;49.306;8.500;2023-11-18T14:10:08;4.13;;;3.40;;
9722;SDS011;4900;49.306;8.500;2023-11-18T14:12:38;5.37;;;3.40;;
9722;SDS011;4900;49.306;8.500;2023-11-18T14:15:04;5.50;;;3.40;;
9722;SDS011;4900;49.306;8.500;2023-11-18T14:17:30;6.43;;;3.60;;
9722;SDS011;4900;49.306;8.500;2023-11-18T14:19:56;4.57;;;3.50;;
9722;SDS011;4900;49.306;8.500;2023-11-18T14:22:21;4.87;;;3.40;;
9722;SDS011;4900;49.306;8.500;2023-11-18T14:24:47;5.03;;;3.43;;
9722;SDS011;4900;49.306;8.500;2023-11-18T14:27:12;4.00;;;3.30;;
9722;SDS011;4900;49.306;8.500;2023-11-18T14:29:38;4.97;;;3.70;;
9722;SDS011;4900;49.306;8.500;2023-11-18T14:32:04;5.93;;;4.10;;
9722;SDS011;4900;49.306;8.500;2023-11-18T14:34:31;7.20;;;4.67;;
9722;SDS011;4900;49.306;8.500;2023-11-18T14:36:56;6.80;;;5.07;;
9722;SDS011;4900;49.306;8.500;2023-11-18T14:39:22;7.57;;;5.37;;
9722;SDS011;4900;49.306;8.500;2023-11-18T14:41:47;8.70;;;5.07;;
9722;SDS011;4900;49.306;8.500;2023-11-18T14:44:13;10.67;;;6.60;;
9722;SDS011;4900;49.306;8.500;2023-11-18T14:46:38;8.03;;;5.33;;
9722;SDS011;4900;49.306;8.500;2023-11-18T14:49:05;6.70;;;4.90;;
9722;SDS011;4900;49.306;8.500;2023-11-18T14:51:31;6.87;;;4.87;;
9722;SDS011;4900;49.306;8.500;2023-11-18T14:53:56;5.93;;;4.73;;
9722;SDS011;4900;49.306;8.500;2023-11-18T14:56:22;7.03;;;4.40;;
9722;SDS011;4900;49.306;8.500;2023-11-18T14:58:47;5.63;;;4.20;;
9722;SDS011;4900;49.306;8.500;2023-11-18T15:01:15;7.47;;;4.30;;
9722;SDS011;4900;49.306;8.500;2023-11-18T15:03:40;7.73;;;5.37;;
9722;SDS011;4900;49.306;8.500;2023-11-18T15:06:06;8.27;;;5.33;;
9722;SDS011;4900;49.306;8.500;2023-11-18T15:08:32;9.07;;;7.17;;
9722;SDS011;4900;49.306;8.500;2023-11-18T15:10:58;17.03;;;10.40;;
9722;SDS011;4900;49.306;8.500;2023-11-18T15:13:24;11.23;;;7.27;;
9722;SDS011;4900;49.306;8.500;2023-11-18T15:15:50;8.37;;;5.67;;
9722;SDS011;4900;49.306;8.500;2023-11-18T15:18:15;8.20;;;6.13;;
9722;SDS011;4900;49.306;8.500;2023-11-18T15:20:44;6.53;;;5.07;;
9722;SDS011;4900;49.306;8.500;2023-11-18T15:23:11;6.93;;;4.90;;
9722;SDS011;4900;49.306;8.500;2023-11-18T15:25:37;5.37;;;4.40;;
9722;SDS011;4900;49.306;8.500;2023-11-18T15:28:04;8.87;;;5.93;;
9722;SDS011;4900;49.306;8.500;2023-11-18T15:30:34;8.03;;;5.20;;
9722;SDS011;4900;49.306;8.500;2023-11-18T15:33:04;7.33;;;5.53;;
9722;SDS011;4900;49.306;8.500;2023-11-18T15:35:30;6.97;;;5.23;;